Latest METARs, TAFs and NOTAMs for LIRQ


---------------------------------------------------------------------------
	(OBSERVATIONS)
LIRQ 261320Z 32006KT 270V360 CAVOK 26/11 Q1012=
LIRQ 261250Z 30005KT 250V350 CAVOK 26/12 Q1012=
LIRQ 261220Z VRB04KT CAVOK 25/10 Q1012=
LIRQ 261150Z VRB02KT CAVOK 25/10 Q1012=
LIRQ 261120Z VRB03KT CAVOK 25/10 Q1013=
LIRQ 261050Z VRB03KT CAVOK 23/10 Q1013=
---------------------------------------------------------------------------
	(FC)
Sorry, FC For LIRQ Not Found
---------------------------------------------------------------------------
	(TERMINAL AREA FORECAST)
LIRQ 261100Z 2612/2712 24007KT CAVOK=
---------------------------------------------------------------------------
	(NOTAMS)


LIRQ B0640/18 LDG OPS FOR RWY23 AVAILABLE AS FLW: -IFR TFC NOT
    ALLOWED. -VFR TFC ALLOWED WITH HELICOPTER OR LOCAL AEROCLUB
    ACFT ONLY. REF AIP AD 2 LIRQ 2-1 AND 1-12. 31 JAN 23:00 2018
    UNTIL 01 MAY 22:59 2018 ESTIMATED. CREATED: 31 JAN 18:01
    2018

LIRQ B0649/18 CIRCLING RWY 23 TEMPORARILY NOT ALLOWED FOR FLW
    INSTRUMENT APPROACH PROCEDURES: - ILS Z RWY 05 CAT A/B/C
    - ILS Y RWY 05 CAT A/B/C - RNAV (GNSS) Z RWY 05 CAT A/B/C
    - RNAV (GNSS) Y RWY 05 CAT A/B/C - VOR RWY 05 CAT A/B/C -
    LOC Z RWY 05 CAT A/B/C - LOC Y RWY 05 CAT A/B/C REF AIP AD
    2 LIRQ 5. 01 FEB 08:32 2018 UNTIL 01 MAY 22:59 2018 ESTIMATED.
    CREATED: 01 FEB 08:32 2018

LIRQ B1523/18 TRIGGER NOTAM-PERM AIP AIRAC AMDT EFFECTIVE DATE
    26 APR 2018 FIRENZE/PERETOLA AD - AERODROME CHART, HOT SPOT
    MAP, LOW VISIBILITY PROCEDURES CHART AND AIRCRAFT PARKING
    DOCKING CHART UPDATED DUE TO CHANGE OF TWY AND RWY SURFACE
    AND STRENGTH, RWY 05/23 WIDTH AND STANDS BEARING STRENGTH
    - CHANGES OF INFORMATION PUBLISHED IN AD2 SECTION, PAGES
    1-1 AND FOLLOWING AIRAC IS POSTED AND AVBL ON WEBSITE WWW.ENAV.IT.
    26 APR 00:00 2018 UNTIL 09 MAY 23:59 2018. CREATED: 15 MAR
    11:08 2018

LIRQ B1599/18 REF AIP AD 2 LIRQ 2-7 'AIRCRAFT PARKING DOCKING
    CHART-ICAO' BOX 'STAND NUMBER-MAX ACFT ALLOWED' ACFT STANDS
    '101' AND '107' CHG TO READ: - 101 A318/E195 - 107 A318/E195.
    20 MAR 11:35 2018 UNTIL PERM. CREATED: 20 MAR 11:35 2018

LIRQ B1889/18 EDGE LIGHTS ON APRON 100, 200 AND 300 UNSERVICEABLE
    DUE TO WIP REF AIP AD 2 LIRQ 2-5. 02 APR 18:33 2018 UNTIL
    28 JUN 22:59 2018 ESTIMATED. CREATED: 02 APR 18:33 2018

LIRQ B2184/17 REF AOC TYPE B NR RQ 3/3 NEW OBSTACLE ERECTED BUILDING
    PENETRATING TAKE-OFF CLIMB SURFACE RWY05 (IN CURVE) POINTS
    PSN COORD (WGS-84): - 434929.7N 0111314.4E - 434928.3N 0111316.0E
    - 434929.2N 0111317.1E - 434930.4N 0111315.5E - 434929.7N
    0111314.4E MAX ELEV AGL 16.6M/54.5FT MAX ELEV AMSL 75.1M/246.4FT
    ICAO SIGNAL UNPROVIDED. 03 MAY 08:27 2017 UNTIL PERM. CREATED:
    03 MAY 08:27 2017

LIRQ B2184/18 ACFT STANDS 201, 203 AND 206 MAX ACFT ALLOWED TYPE
    GLEX/RJ85. REF AIP AD 2 LIRQ 2-7. 18 APR 10:24 2018 UNTIL
    10 JUL 21:59 2018 ESTIMATED. CREATED: 18 APR 10:25 2018

LIRQ B2226/18 INSTRUMENT APPROACH PROCEDURE. CIRCLING CAT C SUSPENDED
    DUE TO ACT ANNOUNCED BY NOTAM W0777/18. REF AIP AD 2 LIRQ
    5. 07 AND 14 SR-SS, 07 MAY 00:00 2018 UNTIL 14 MAY 23:59
    2018. CREATED: 20 APR 08:38 2018

LIRQ B2317/18 INSTRUMENT LANDING SYSTEM (ILS) RWY 05 UNSERVICEABLE,
    DUE TO MAINT. REF AIP AD 2 LIRQ 1-7. 14 MAY 06:00 2018 UNTIL
    14 MAY 10:00 2018. CREATED: 23 APR 14:50 2018

LIRQ B2336/18 RUNWAY THRESHOLD INDENTIFICATION LIGHTS (RTIL)
    RWY05 UNSERVICEABLE. REF AIP AD 2 LIRQ 1-6. 24 APR 12:35
    2018 UNTIL 24 MAY 23:59 2018 ESTIMATED. CREATED: 24 APR 12:35
    2018

LIRQ B4964/17 REF AIP AD 2 LIRQ 6-24 (AIP AIRAC AMDT 10/17 -
    EFFECTIVE DATE 9 NOV 2017) STANDARD INSTRUMENT DEPARTURE
    PROCEDURE PRT VOR RWY 05/23 MODIFY SID NAME TO READ MAREL
    5H INSTEAD OF MAREL 5C DUE TO A MISSPRINTING. 09 NOV 00:00
    2017 UNTIL PERM. CREATED: 03 OCT 09:37 2017

LIRQ B5189/17 REF AIP AD 2 LIRQ 4-23 (AIP AIRAC AMDT 10/17 -
    EFFECTIVE DATE 09 NOV 2017) STANDARD INSTRUMENT ARRIVAL PROCEDURE
    DESCRIPTION STAR PIS 2X (ATC DISCRETION) MODIFY MINIMUM CROSSING
    ALTITUDE AS FLW: PIS VOR/DME - RDL 099/15NM PIS VOR/DME (INT
    RDL 240 PRT VOR): 6000FT, RDL 099/15NM PIS VOR/DME (INT RDL
    240 PRT VOR) - GONGA: 5000FT. 09 NOV 00:00 2017 UNTIL PERM.
    CREATED: 13 OCT 09:36 2017

LIRQ B5193/17 REF AIP AD 2 LIRQ 4-21 AND 4-23 (AIP AIRAC AMDT
    10/17 - EFFECTIVE DATE 9 NOV 2017) STANDARD INSTRUMENT ARRIVAL
    PROCEDURE STAR AKUTO 1X SHALL BE CONSIDERED ATC DISCRETION
    INSTEAD OF FLIGHT PLANNABLE. 09 NOV 00:00 2017 UNTIL PERM.
    CREATED: 13 OCT 10:32 2017

---------------------------------------------------------------------------